createdAt,value
2022-09-06T00:00:48.205Z,1007.85
2022-09-06T00:01:48.229Z,1007.85
2022-09-06T00:02:48.224Z,1007.88
2022-09-06T00:03:48.317Z,1007.88
2022-09-06T00:04:48.180Z,1007.91
2022-09-06T00:05:48.147Z,1007.93
2022-09-06T00:06:48.202Z,1007.89
2022-09-06T00:07:48.197Z,1007.89
2022-09-06T00:08:48.207Z,1007.94
2022-09-06T00:09:48.094Z,1007.93
2022-09-06T00:10:48.148Z,1007.89
2022-09-06T00:11:48.107Z,1007.85
2022-09-06T00:12:48.092Z,1007.84
2022-09-06T00:13:48.105Z,1007.82
2022-09-06T00:14:48.078Z,1007.85
2022-09-06T00:15:48.072Z,1007.82
2022-09-06T00:16:48.105Z,1007.78
2022-09-06T00:17:48.028Z,1007.76
2022-09-06T00:18:48.082Z,1007.73
2022-09-06T00:19:48.009Z,1007.71
2022-09-06T00:20:47.976Z,1007.65
2022-09-06T00:21:48.019Z,1007.66
2022-09-06T00:22:47.992Z,1007.64
2022-09-06T00:23:47.994Z,1007.65
2022-09-06T00:24:47.977Z,1007.67
2022-09-06T00:25:47.933Z,1007.66
2022-09-06T00:26:47.932Z,1007.66
2022-09-06T00:27:47.954Z,1007.62
2022-09-06T00:28:47.954Z,1007.62
2022-09-06T00:29:47.903Z,1007.66
2022-09-06T00:30:47.950Z,1007.65
2022-09-06T00:31:47.868Z,1007.65
2022-09-06T00:32:47.856Z,1007.64
2022-09-06T00:33:47.881Z,1007.59
2022-09-06T00:34:47.833Z,1007.61
2022-09-06T00:35:47.870Z,1007.63
2022-09-06T00:36:47.825Z,1007.60
2022-09-06T00:37:47.800Z,1007.60
2022-09-06T00:38:47.836Z,1007.60
2022-09-06T00:39:47.879Z,1007.59
2022-09-06T00:40:47.800Z,1007.61
2022-09-06T00:41:47.754Z,1007.62
2022-09-06T00:42:47.810Z,1007.61
2022-09-06T00:43:47.825Z,1007.62
2022-09-06T00:44:47.752Z,1007.62
2022-09-06T00:45:47.763Z,1007.67
2022-09-06T00:46:47.740Z,1007.67
2022-09-06T00:47:47.667Z,1007.71
2022-09-06T00:48:47.719Z,1007.73
2022-09-06T00:49:47.700Z,1007.72
2022-09-06T00:50:47.640Z,1007.73
2022-09-06T00:51:47.654Z,1007.77
2022-09-06T00:52:47.609Z,1007.70
2022-09-06T00:53:47.618Z,1007.73
2022-09-06T00:54:47.602Z,1007.72
2022-09-06T00:55:47.606Z,1007.68
2022-09-06T00:56:47.567Z,1007.68
2022-09-06T00:57:47.553Z,1007.68
2022-09-06T00:58:47.571Z,1007.65
2022-09-06T00:59:47.551Z,1007.68
2022-09-06T01:00:47.538Z,1007.66
2022-09-06T01:01:47.577Z,1007.69
2022-09-06T01:02:47.713Z,1007.66
2022-09-06T01:03:47.495Z,1007.72
2022-09-06T01:04:47.502Z,1007.68
2022-09-06T01:05:50.558Z,1007.66
2022-09-06T01:06:47.496Z,1007.64
2022-09-06T01:07:47.447Z,1007.60
2022-09-06T01:08:47.439Z,1007.64
2022-09-06T01:09:47.437Z,1007.62
2022-09-06T01:10:47.617Z,1007.58
2022-09-06T01:11:47.414Z,1007.54
2022-09-06T01:12:47.394Z,1007.59
2022-09-06T01:13:47.382Z,1007.59
2022-09-06T01:14:47.372Z,1007.58
2022-09-06T01:15:47.361Z,1007.61
2022-09-06T01:16:47.370Z,1007.59
2022-09-06T01:17:47.365Z,1007.61
2022-09-06T01:18:47.339Z,1007.59
2022-09-06T01:19:47.302Z,1007.60
2022-09-06T01:20:47.307Z,1007.57
2022-09-06T01:21:47.314Z,1007.54
2022-09-06T01:22:47.288Z,1007.55
2022-09-06T01:23:47.271Z,1007.53
2022-09-06T01:24:47.264Z,1007.55
2022-09-06T01:25:47.252Z,1007.51
2022-09-06T01:26:47.224Z,1007.53
2022-09-06T01:27:47.251Z,1007.51
2022-09-06T01:28:47.208Z,1007.51
2022-09-06T01:29:47.201Z,1007.50
2022-09-06T01:30:47.219Z,1007.53
2022-09-06T01:31:47.178Z,1007.50
2022-09-06T01:32:47.167Z,1007.50
2022-09-06T01:33:47.164Z,1007.48
2022-09-06T01:34:47.144Z,1007.41
2022-09-06T01:35:47.133Z,1007.43
2022-09-06T01:37:08.361Z,1007.43
2022-09-06T01:37:47.125Z,1007.43
2022-09-06T01:38:47.117Z,1007.42
2022-09-06T01:39:47.144Z,1007.44
2022-09-06T01:40:47.113Z,1007.41
2022-09-06T01:41:47.075Z,1007.38
2022-09-06T01:42:47.063Z,1007.34
2022-09-06T01:43:47.065Z,1007.29
2022-09-06T01:44:47.029Z,1007.27
2022-09-06T01:45:47.017Z,1007.28
2022-09-06T01:46:47.009Z,1007.27
2022-09-06T01:47:46.991Z,1007.25
2022-09-06T01:48:47.006Z,1007.30
2022-09-06T01:49:46.969Z,1007.28
2022-09-06T01:50:46.959Z,1007.25
2022-09-06T01:51:46.941Z,1007.25
2022-09-06T01:52:46.950Z,1007.27
2022-09-06T01:53:46.973Z,1007.23
2022-09-06T01:54:46.911Z,1007.24
2022-09-06T01:55:46.909Z,1007.22
2022-09-06T01:56:46.886Z,1007.24
2022-09-06T01:57:46.895Z,1007.21
2022-09-06T01:58:46.867Z,1007.23
2022-09-06T01:59:46.878Z,1007.25
2022-09-06T02:00:46.861Z,1007.26
2022-09-06T02:01:46.890Z,1007.26
2022-09-06T02:02:46.907Z,1007.27
2022-09-06T02:03:46.817Z,1007.25
2022-09-06T02:04:46.843Z,1007.25
2022-09-06T02:05:46.793Z,1007.30
2022-09-06T02:06:46.783Z,1007.29
2022-09-06T02:07:46.781Z,1007.29
2022-09-06T02:08:46.772Z,1007.29
2022-09-06T02:09:46.765Z,1007.36
2022-09-06T02:10:46.746Z,1007.34
2022-09-06T02:11:46.722Z,1007.35
2022-09-06T02:12:46.713Z,1007.39
2022-09-06T02:13:46.699Z,1007.39
2022-09-06T02:14:46.684Z,1007.40
2022-09-06T02:15:46.765Z,1007.41
2022-09-06T02:16:46.690Z,1007.41
2022-09-06T02:17:46.693Z,1007.42
2022-09-06T02:18:46.640Z,1007.41
2022-09-06T02:19:46.642Z,1007.41
2022-09-06T02:20:46.630Z,1007.45
2022-09-06T02:21:46.614Z,1007.50
2022-09-06T02:22:46.590Z,1007.58
2022-09-06T02:23:46.604Z,1007.66
2022-09-06T02:24:46.569Z,1007.69
2022-09-06T02:25:46.598Z,1007.68
2022-09-06T02:26:46.547Z,1007.70
2022-09-06T02:27:46.543Z,1007.65
2022-09-06T02:28:46.527Z,1007.71
2022-09-06T02:29:46.510Z,1007.70
2022-09-06T02:30:46.653Z,1007.72
2022-09-06T02:31:46.502Z,1007.70
2022-09-06T02:32:46.473Z,1007.69
2022-09-06T02:33:46.469Z,1007.70
2022-09-06T02:34:46.467Z,1007.66
2022-09-06T02:35:46.445Z,1007.66
2022-09-06T02:36:46.450Z,1007.67
2022-09-06T02:37:46.424Z,1007.67
2022-09-06T02:38:46.428Z,1007.69
2022-09-06T02:39:46.452Z,1007.64
2022-09-06T02:40:46.387Z,1007.66
2022-09-06T02:41:46.423Z,1007.64
2022-09-06T02:42:46.361Z,1007.57
2022-09-06T02:43:46.371Z,1007.60
2022-09-06T02:44:46.336Z,1007.58
2022-09-06T02:45:46.357Z,1007.53
2022-09-06T02:46:46.354Z,1007.53
2022-09-06T02:47:46.337Z,1007.49
2022-09-06T02:48:46.306Z,1007.53
2022-09-06T02:49:46.327Z,1007.51
2022-09-06T02:50:46.267Z,1007.47
2022-09-06T02:51:46.257Z,1007.44
2022-09-06T02:52:46.266Z,1007.50
2022-09-06T02:53:46.228Z,1007.48
2022-09-06T02:54:46.236Z,1007.51
2022-09-06T02:55:46.206Z,1007.49
2022-09-06T02:56:50.172Z,1007.48
2022-09-06T02:57:46.236Z,1007.51
2022-09-06T02:58:46.177Z,1007.54
2022-09-06T02:59:46.177Z,1007.49
2022-09-06T03:00:46.164Z,1007.48
2022-09-06T03:01:46.260Z,1007.50
2022-09-06T03:02:46.176Z,1007.47
2022-09-06T03:03:46.152Z,1007.47
2022-09-06T03:04:46.122Z,1007.46
2022-09-06T03:05:46.093Z,1007.48
2022-09-06T03:06:46.096Z,1007.48
2022-09-06T03:07:46.088Z,1007.47
2022-09-06T03:08:46.078Z,1007.48
2022-09-06T03:09:46.062Z,1007.46
2022-09-06T03:10:46.039Z,1007.50
2022-09-06T03:11:46.019Z,1007.45
2022-09-06T03:12:46.010Z,1007.45
2022-09-06T03:13:46.000Z,1007.42
2022-09-06T03:14:46.016Z,1007.45
2022-09-06T03:15:45.999Z,1007.43
2022-09-06T03:16:46.147Z,1007.39
2022-09-06T03:17:45.974Z,1007.37
2022-09-06T03:18:45.954Z,1007.35
2022-09-06T03:19:45.988Z,1007.32
2022-09-06T03:20:45.925Z,1007.35
2022-09-06T03:21:45.965Z,1007.38
2022-09-06T03:22:45.893Z,1007.38
2022-09-06T03:23:45.938Z,1007.40
2022-09-06T03:24:45.878Z,1007.39
2022-09-06T03:25:45.907Z,1007.34
2022-09-06T03:26:45.844Z,1007.40
2022-09-06T03:27:45.832Z,1007.35
2022-09-06T03:28:45.881Z,1007.33
2022-09-06T03:29:45.815Z,1007.35
2022-09-06T03:30:45.837Z,1007.34
2022-09-06T03:31:45.800Z,1007.36
2022-09-06T03:32:45.778Z,1007.38
2022-09-06T03:33:45.799Z,1007.35
2022-09-06T03:34:45.751Z,1007.40
2022-09-06T03:35:45.781Z,1007.39
2022-09-06T03:36:45.745Z,1007.44
2022-09-06T03:37:45.715Z,1007.44
2022-09-06T03:38:45.733Z,1007.41
2022-09-06T03:39:45.782Z,1007.39
2022-09-06T03:40:45.694Z,1007.41
2022-09-06T03:41:45.698Z,1007.39
2022-09-06T03:42:45.657Z,1007.41
2022-09-06T03:43:45.674Z,1007.40
2022-09-06T03:44:45.648Z,1007.35
2022-09-06T03:45:45.704Z,1007.42
2022-09-06T03:46:45.669Z,1007.34
2022-09-06T03:47:45.626Z,1007.31
2022-09-06T03:48:45.608Z,1007.33
2022-09-06T03:49:45.586Z,1007.28
2022-09-06T03:50:45.588Z,1007.27
2022-09-06T03:51:45.556Z,1007.26
2022-09-06T03:52:45.552Z,1007.23
2022-09-06T03:53:45.576Z,1007.25
2022-09-06T03:54:45.527Z,1007.25
2022-09-06T03:55:45.513Z,1007.29
2022-09-06T03:56:45.515Z,1007.28
2022-09-06T03:57:45.482Z,1007.30
2022-09-06T03:58:45.511Z,1007.26
2022-09-06T03:59:45.460Z,1007.22
2022-09-06T04:00:45.493Z,1007.23
2022-09-06T04:01:45.455Z,1007.24
2022-09-06T04:02:45.460Z,1007.29
2022-09-06T04:03:45.447Z,1007.25
2022-09-06T04:04:45.421Z,1007.33
2022-09-06T04:05:45.396Z,1007.30
2022-09-06T04:06:45.412Z,1007.33
2022-09-06T04:07:45.388Z,1007.32
2022-09-06T04:08:45.387Z,1007.35
2022-09-06T04:09:45.343Z,1007.35
2022-09-06T04:10:45.346Z,1007.35
2022-09-06T04:11:45.323Z,1007.29
2022-09-06T04:12:45.310Z,1007.30
2022-09-06T04:13:45.339Z,1007.30
2022-09-06T04:14:45.302Z,1007.32
2022-09-06T04:15:45.291Z,1007.34
2022-09-06T04:16:45.324Z,1007.28
2022-09-06T04:17:45.267Z,1007.19
2022-09-06T04:18:45.282Z,1007.14
2022-09-06T04:19:45.240Z,1007.12
2022-09-06T04:20:45.232Z,1007.09
2022-09-06T04:21:45.223Z,1007.10
2022-09-06T04:22:45.237Z,1007.13
2022-09-06T04:23:45.211Z,1007.18
2022-09-06T04:24:45.219Z,1007.27
2022-09-06T04:25:45.167Z,1007.31
2022-09-06T04:26:45.172Z,1007.33
2022-09-06T04:27:45.138Z,1007.29
2022-09-06T04:28:45.175Z,1007.40
2022-09-06T04:29:45.124Z,1007.38
2022-09-06T04:30:45.130Z,1007.44
2022-09-06T04:31:45.157Z,1007.47
2022-09-06T04:32:45.101Z,1007.50
2022-09-06T04:33:45.088Z,1007.54
2022-09-06T04:34:45.103Z,1007.49
2022-09-06T04:35:45.064Z,1007.51
2022-09-06T04:36:48.318Z,1007.50
2022-09-06T04:37:45.044Z,1007.47
2022-09-06T04:38:45.059Z,1007.46
2022-09-06T04:39:45.086Z,1007.50
2022-09-06T04:40:45.000Z,1007.48
2022-09-06T04:41:44.995Z,1007.51
2022-09-06T04:42:45.000Z,1007.49
2022-09-06T04:43:45.019Z,1007.48
2022-09-06T04:44:44.956Z,1007.49
2022-09-06T04:45:44.996Z,1007.45
2022-09-06T04:46:44.936Z,1007.41
2022-09-06T04:47:44.916Z,1007.38
2022-09-06T04:48:44.936Z,1007.39
2022-09-06T04:49:44.899Z,1007.39
2022-09-06T04:50:44.910Z,1007.44
2022-09-06T04:51:44.880Z,1007.47
2022-09-06T04:52:44.892Z,1007.56
2022-09-06T04:53:44.880Z,1007.66
2022-09-06T04:54:44.840Z,1007.67
2022-09-06T04:55:44.849Z,1007.77
2022-09-06T04:56:44.816Z,1007.82
2022-09-06T04:57:48.455Z,1007.89
2022-09-06T04:58:44.841Z,1007.91
2022-09-06T04:59:44.798Z,1007.91
2022-09-06T05:00:44.926Z,1007.93
2022-09-06T05:01:44.773Z,1007.91
2022-09-06T05:02:44.813Z,1007.93
2022-09-06T05:03:44.781Z,1007.98
2022-09-06T05:04:44.751Z,1007.96
2022-09-06T05:05:44.734Z,1007.96
2022-09-06T05:06:44.706Z,1007.84
2022-09-06T05:07:44.700Z,1007.78
2022-09-06T05:08:44.712Z,1007.75
2022-09-06T05:09:44.710Z,1007.71
2022-09-06T05:10:44.661Z,1007.74
2022-09-06T05:11:44.673Z,1007.87
2022-09-06T05:12:44.657Z,1007.89
2022-09-06T05:13:44.673Z,1007.82
2022-09-06T05:14:44.615Z,1007.81
2022-09-06T05:15:44.620Z,1007.88
2022-09-06T05:16:44.697Z,1007.93
2022-09-06T05:17:44.600Z,1008.02
2022-09-06T05:18:44.609Z,1008.05
2022-09-06T05:19:44.561Z,1008.11
2022-09-06T05:20:44.557Z,1008.09
2022-09-06T05:21:44.534Z,1008.01
2022-09-06T05:22:44.535Z,1008.02
2022-09-06T05:23:44.558Z,1008.02
2022-09-06T05:24:44.541Z,1008.16
2022-09-06T05:25:44.493Z,1008.12
2022-09-06T05:26:44.513Z,1008.14
2022-09-06T05:27:44.481Z,1008.00
2022-09-06T05:28:44.518Z,1007.92
2022-09-06T05:29:44.471Z,1007.76
2022-09-06T05:30:44.447Z,1007.74
2022-09-06T05:31:44.488Z,1007.72
2022-09-06T05:32:44.426Z,1007.76
2022-09-06T05:33:44.442Z,1007.84
2022-09-06T05:34:44.412Z,1007.89
2022-09-06T05:35:44.415Z,1007.90
2022-09-06T05:36:44.431Z,1007.90
2022-09-06T05:37:44.370Z,1007.92
2022-09-06T05:38:44.372Z,1007.97
2022-09-06T05:39:44.412Z,1007.98
2022-09-06T05:40:44.331Z,1007.95
2022-09-06T05:41:44.325Z,1008.00
2022-09-06T05:42:44.365Z,1008.12
2022-09-06T05:43:44.334Z,1008.21
2022-09-06T05:44:44.297Z,1008.23
2022-09-06T05:45:44.447Z,1008.32
2022-09-06T05:46:44.261Z,1008.35
2022-09-06T05:47:44.251Z,1008.39
2022-09-06T05:48:44.342Z,1008.29
2022-09-06T05:49:44.260Z,1008.20
2022-09-06T05:50:44.252Z,1008.10
2022-09-06T05:51:44.267Z,1008.12
2022-09-06T05:52:44.205Z,1008.01
2022-09-06T05:53:44.252Z,1008.02
2022-09-06T05:54:44.175Z,1007.97
2022-09-06T05:55:44.200Z,1007.95
2022-09-06T05:56:44.179Z,1007.97
2022-09-06T05:57:44.159Z,1007.97
2022-09-06T05:58:44.152Z,1007.99
2022-09-06T05:59:44.131Z,1007.98
2022-09-06T06:00:44.137Z,1007.96
2022-09-06T06:01:44.227Z,1007.95
2022-09-06T06:02:44.164Z,1007.92
2022-09-06T06:03:44.130Z,1007.93
2022-09-06T06:04:44.116Z,1007.90
2022-09-06T06:05:44.088Z,1007.83
2022-09-06T06:06:44.045Z,1007.78
2022-09-06T06:07:44.067Z,1007.72
2022-09-06T06:08:44.043Z,1007.72
2022-09-06T06:09:44.023Z,1007.73
2022-09-06T06:10:44.030Z,1007.72
2022-09-06T06:11:44.106Z,1007.72
2022-09-06T06:12:43.994Z,1007.79
2022-09-06T06:13:44.015Z,1007.80
2022-09-06T06:14:43.970Z,1007.80
2022-09-06T06:15:43.957Z,1007.82
2022-09-06T06:16:44.040Z,1007.79
2022-09-06T06:17:43.924Z,1007.79
2022-09-06T06:18:45.210Z,1007.79
2022-09-06T06:19:43.913Z,1007.81
2022-09-06T06:20:43.891Z,1007.82
2022-09-06T06:21:43.932Z,1007.83
2022-09-06T06:22:43.865Z,1007.85
2022-09-06T06:23:43.908Z,1007.82
2022-09-06T06:24:43.851Z,1007.81
2022-09-06T06:25:43.863Z,1007.80
2022-09-06T06:26:43.873Z,1007.88
2022-09-06T06:27:43.839Z,1007.91
2022-09-06T06:28:43.846Z,1007.95
2022-09-06T06:29:43.797Z,1007.97
2022-09-06T06:30:43.784Z,1008.00
2022-09-06T06:31:43.839Z,1007.99
2022-09-06T06:32:43.767Z,1008.01
2022-09-06T06:33:43.804Z,1007.98
2022-09-06T06:34:43.993Z,1007.99
2022-09-06T06:35:43.745Z,1008.02
2022-09-06T06:36:43.733Z,1008.05
2022-09-06T06:37:43.704Z,1008.07
2022-09-06T06:38:43.720Z,1008.01
2022-09-06T06:39:43.769Z,1008.03
2022-09-06T06:40:43.665Z,1008.02
2022-09-06T06:41:43.668Z,1007.99
2022-09-06T06:42:43.681Z,1008.00
2022-09-06T06:43:43.677Z,1008.03
2022-09-06T06:44:43.626Z,1007.93
2022-09-06T06:45:43.715Z,1007.99
2022-09-06T06:46:43.628Z,1007.97
2022-09-06T06:47:43.592Z,1007.95
2022-09-06T06:48:43.627Z,1008.06
2022-09-06T06:49:43.590Z,1008.04
2022-09-06T06:50:43.574Z,1008.02
2022-09-06T06:51:43.577Z,1007.94
2022-09-06T06:52:43.544Z,1007.96
2022-09-06T06:53:43.563Z,1007.96
2022-09-06T06:54:43.520Z,1007.97
2022-09-06T06:55:43.515Z,1008.02
2022-09-06T06:56:43.501Z,1008.05
2022-09-06T06:57:43.489Z,1008.02
2022-09-06T06:58:43.493Z,1008.07
2022-09-06T06:59:43.456Z,1008.07
2022-09-06T07:00:43.675Z,1008.11
2022-09-06T07:01:43.588Z,1008.15
2022-09-06T07:02:43.452Z,1008.21
2022-09-06T07:03:43.491Z,1008.18
2022-09-06T07:04:43.412Z,1008.16
2022-09-06T07:07:43.409Z,1008.10
2022-09-06T07:08:43.382Z,1008.09
2022-09-06T07:10:43.348Z,1008.09
2022-09-06T07:11:43.332Z,1008.09
2022-09-06T07:12:43.320Z,1008.08
2022-09-06T07:13:43.330Z,1008.03
2022-09-06T07:14:43.292Z,1008.00
2022-09-06T07:15:43.276Z,1007.98
2022-09-06T07:16:43.338Z,1007.94
2022-09-06T07:17:43.262Z,1007.92
2022-09-06T07:18:43.264Z,1007.94
2022-09-06T07:21:43.253Z,1007.92
2022-09-06T07:22:43.198Z,1007.95
2022-09-06T07:24:43.198Z,1007.91
2022-09-06T07:25:43.194Z,1007.92
2022-09-06T07:27:49.191Z,1007.85
2022-09-06T07:28:43.159Z,1007.89
2022-09-06T07:29:43.140Z,1007.90
2022-09-06T07:30:43.169Z,1007.89
2022-09-06T07:32:43.106Z,1007.84
2022-09-06T07:33:43.102Z,1007.86
2022-09-06T07:34:43.108Z,1007.89
2022-09-06T07:35:43.086Z,1007.94
2022-09-06T07:36:43.075Z,1007.87
2022-09-06T07:37:43.070Z,1007.93
2022-09-06T07:38:43.054Z,1007.93
2022-09-06T07:39:43.124Z,1007.94
2022-09-06T07:40:43.007Z,1007.95
2022-09-06T07:41:43.092Z,1007.93
2022-09-06T07:42:42.983Z,1007.94
2022-09-06T07:43:42.993Z,1007.98
2022-09-06T07:44:42.972Z,1007.98
2022-09-06T07:45:43.002Z,1007.99
2022-09-06T07:46:43.006Z,1007.99
2022-09-06T07:47:58.645Z,1008.02
2022-09-06T07:48:42.982Z,1008.01
2022-09-06T07:50:49.193Z,1008.00
2022-09-06T07:51:42.908Z,1008.01
2022-09-06T07:53:42.889Z,1007.99
2022-09-06T07:54:43.114Z,1008.02
2022-09-06T07:55:42.824Z,1008.05
2022-09-06T07:56:42.834Z,1008.01
2022-09-06T07:57:42.837Z,1007.97
2022-09-06T07:58:42.848Z,1007.99
2022-09-06T07:59:43.107Z,1008.01
2022-09-06T08:00:42.894Z,1007.95
2022-09-06T08:01:42.878Z,1007.97
2022-09-06T08:02:42.775Z,1007.99
2022-09-06T08:03:42.735Z,1008.01
2022-09-06T08:04:42.735Z,1008.01
2022-09-06T08:07:42.699Z,1008.05
2022-09-06T08:08:58.773Z,1008.04
2022-09-06T08:09:42.721Z,1008.04
2022-09-06T08:10:42.661Z,1008.04
2022-09-06T08:11:42.701Z,1008.04
2022-09-06T08:12:42.637Z,1008.03
2022-09-06T08:13:42.674Z,1007.98
2022-09-06T08:14:42.610Z,1007.96
2022-09-06T08:15:42.599Z,1007.98
2022-09-06T08:16:42.682Z,1007.95
2022-09-06T08:17:42.578Z,1007.98
2022-09-06T08:18:42.557Z,1007.96
2022-09-06T08:19:42.572Z,1007.98
2022-09-06T08:20:42.536Z,1007.97
2022-09-06T08:21:42.559Z,1007.95
2022-09-06T08:22:42.550Z,1007.95
2022-09-06T08:23:42.520Z,1007.92
2022-09-06T08:24:42.497Z,1007.89
2022-09-06T08:25:42.495Z,1007.93
2022-09-06T08:26:42.524Z,1007.91
2022-09-06T08:27:42.481Z,1007.92
2022-09-06T08:28:42.464Z,1007.89
2022-09-06T08:29:42.444Z,1007.91
2022-09-06T08:30:42.440Z,1007.89
2022-09-06T08:31:42.699Z,1007.91
2022-09-06T08:32:42.453Z,1007.94
2022-09-06T08:33:42.431Z,1007.96
2022-09-06T08:34:42.388Z,1007.95
2022-09-06T08:35:42.388Z,1007.95
2022-09-06T08:36:42.374Z,1007.99
2022-09-06T08:37:42.390Z,1007.97
2022-09-06T08:38:42.394Z,1008.00
2022-09-06T08:39:42.417Z,1008.01
2022-09-06T08:40:42.331Z,1007.97
2022-09-06T08:41:42.309Z,1007.96
2022-09-06T08:42:42.337Z,1007.98
2022-09-06T08:43:42.316Z,1007.98
2022-09-06T08:44:58.310Z,1008.00
2022-09-06T08:45:42.272Z,1008.05
2022-09-06T08:46:42.326Z,1007.98
2022-09-06T08:47:42.240Z,1007.99
2022-09-06T08:48:42.266Z,1007.97
2022-09-06T08:49:42.218Z,1007.97
2022-09-06T08:50:42.213Z,1007.97
2022-09-06T08:51:42.229Z,1007.95
2022-09-06T08:52:49.726Z,1007.93
2022-09-06T08:53:42.214Z,1007.91
2022-09-06T08:54:42.162Z,1007.91
2022-09-06T08:55:42.145Z,1007.90
2022-09-06T08:56:42.144Z,1007.92
2022-09-06T08:57:42.135Z,1007.88
2022-09-06T08:58:42.139Z,1007.88
2022-09-06T08:59:42.094Z,1007.88
2022-09-06T09:00:42.192Z,1007.91
2022-09-06T09:01:42.153Z,1007.89
2022-09-06T09:02:42.069Z,1007.92
2022-09-06T09:03:42.060Z,1007.84
2022-09-06T09:04:42.093Z,1007.81
2022-09-06T09:05:42.037Z,1007.83
2022-09-06T09:06:42.017Z,1007.80
2022-09-06T09:07:42.008Z,1007.79
2022-09-06T09:08:42.009Z,1007.81
2022-09-06T09:09:42.006Z,1007.75
2022-09-06T09:10:42.009Z,1007.76
2022-09-06T09:11:41.981Z,1007.73
2022-09-06T09:12:41.957Z,1007.72
2022-09-06T09:13:41.951Z,1007.70
2022-09-06T09:14:41.932Z,1007.74
2022-09-06T09:15:41.947Z,1007.74
2022-09-06T09:16:41.958Z,1007.71
2022-09-06T09:17:41.912Z,1007.73
2022-09-06T09:18:41.896Z,1007.71
2022-09-06T09:19:41.910Z,1007.72
2022-09-06T09:20:41.878Z,1007.70
2022-09-06T09:21:41.875Z,1007.68
2022-09-06T09:22:41.858Z,1007.68
2022-09-06T09:23:41.857Z,1007.67
2022-09-06T09:24:41.832Z,1007.69
2022-09-06T09:25:41.845Z,1007.62
2022-09-06T09:26:41.829Z,1007.66
2022-09-06T09:27:41.813Z,1007.69
2022-09-06T09:28:41.773Z,1007.74
2022-09-06T09:29:41.946Z,1007.73
2022-09-06T09:30:49.547Z,1007.73
2022-09-06T09:31:41.791Z,1007.69
2022-09-06T09:32:41.736Z,1007.67
2022-09-06T09:33:41.754Z,1007.72
2022-09-06T09:34:41.721Z,1007.69
2022-09-06T09:35:41.717Z,1007.66
2022-09-06T09:37:48.708Z,1007.66
2022-09-06T09:38:41.690Z,1007.62
2022-09-06T09:39:41.770Z,1007.65
2022-09-06T09:40:41.701Z,1007.65
2022-09-06T09:41:41.648Z,1007.69
2022-09-06T09:42:41.655Z,1007.67
2022-09-06T09:43:41.635Z,1007.65
2022-09-06T09:44:41.617Z,1007.63
2022-09-06T09:45:41.621Z,1007.60
2022-09-06T09:46:41.654Z,1007.57
2022-09-06T09:47:41.589Z,1007.55
2022-09-06T09:48:41.614Z,1007.53
2022-09-06T09:49:41.557Z,1007.54
2022-09-06T09:50:41.553Z,1007.49
2022-09-06T09:51:41.603Z,1007.45
2022-09-06T09:52:41.513Z,1007.57
2022-09-06T09:53:41.515Z,1007.55
2022-09-06T09:54:41.528Z,1007.56
2022-09-06T09:55:41.490Z,1007.51
2022-09-06T09:56:41.489Z,1007.51
2022-09-06T09:57:41.491Z,1007.55
2022-09-06T09:58:41.488Z,1007.51
2022-09-06T09:59:41.444Z,1007.50
2022-09-06T10:00:41.557Z,1007.51
2022-09-06T10:01:41.418Z,1007.50
2022-09-06T10:02:41.437Z,1007.54
2022-09-06T10:05:41.366Z,1007.51
2022-09-06T10:07:41.378Z,1007.46
2022-09-06T10:08:41.363Z,1007.49
2022-09-06T10:09:41.328Z,1007.48
2022-09-06T10:10:41.324Z,1007.47
2022-09-06T10:11:41.321Z,1007.48
2022-09-06T10:12:41.324Z,1007.52
2022-09-06T10:13:41.285Z,1007.50
2022-09-06T10:14:41.278Z,1007.49
2022-09-06T10:15:41.307Z,1007.50
2022-09-06T10:16:41.259Z,1007.50
2022-09-06T10:17:41.262Z,1007.44
2022-09-06T10:18:41.236Z,1007.40
2022-09-06T10:19:41.212Z,1007.40
2022-09-06T10:20:41.214Z,1007.41
2022-09-06T10:21:41.183Z,1007.34
2022-09-06T10:22:41.202Z,1007.34
2022-09-06T10:24:41.192Z,1007.29
2022-09-06T10:25:43.014Z,1007.32
2022-09-06T10:26:41.163Z,1007.30
2022-09-06T10:27:55.461Z,1007.30
2022-09-06T10:28:41.155Z,1007.29
2022-09-06T10:29:41.100Z,1007.35
2022-09-06T10:30:41.089Z,1007.29
2022-09-06T10:31:41.140Z,1007.25
2022-09-06T10:32:41.059Z,1007.26
2022-09-06T10:33:41.068Z,1007.20
2022-09-06T10:34:41.088Z,1007.22
2022-09-06T10:35:41.045Z,1007.20
2022-09-06T10:36:41.065Z,1007.18
2022-09-06T10:37:41.005Z,1007.19
2022-09-06T10:38:40.998Z,1007.22
2022-09-06T10:39:41.017Z,1007.24
2022-09-06T10:40:41.359Z,1007.22
2022-09-06T10:41:40.962Z,1007.24
2022-09-06T10:42:40.951Z,1007.28
2022-09-06T10:43:40.981Z,1007.24
2022-09-06T10:44:40.930Z,1007.26
2022-09-06T10:45:40.928Z,1007.20
2022-09-06T10:46:41.017Z,1007.17
2022-09-06T10:47:40.906Z,1007.20
2022-09-06T10:48:40.909Z,1007.16
2022-09-06T10:49:40.882Z,1007.20
2022-09-06T10:50:40.890Z,1007.17
2022-09-06T10:51:40.851Z,1007.17
2022-09-06T10:52:40.882Z,1007.17
2022-09-06T10:53:40.849Z,1007.13
2022-09-06T10:54:40.820Z,1007.11
2022-09-06T10:55:40.816Z,1007.10
2022-09-06T10:56:40.802Z,1007.11
2022-09-06T10:59:40.789Z,1007.13
2022-09-06T11:00:40.763Z,1007.12
2022-09-06T11:01:40.849Z,1007.07
2022-09-06T11:02:40.957Z,1007.04
2022-09-06T11:04:00.026Z,1007.04
2022-09-06T11:05:40.721Z,1007.00
2022-09-06T11:06:40.706Z,1007.01
2022-09-06T11:07:41.174Z,1007.06
2022-09-06T11:08:48.098Z,1007.02
2022-09-06T11:09:40.671Z,1007.03
2022-09-06T11:10:40.677Z,1007.03
2022-09-06T11:11:40.647Z,1007.02
2022-09-06T11:12:40.641Z,1006.98
2022-09-06T11:13:40.596Z,1007.01
2022-09-06T11:14:40.619Z,1007.00
2022-09-06T11:15:40.665Z,1007.02
2022-09-06T11:16:40.590Z,1007.00
2022-09-06T11:17:40.569Z,1007.04
2022-09-06T11:18:40.552Z,1007.01
2022-09-06T11:19:40.583Z,1007.10
2022-09-06T11:20:40.519Z,1007.07
2022-09-06T11:21:40.530Z,1007.05
2022-09-06T11:22:40.567Z,1007.07
2022-09-06T11:23:40.521Z,1007.12
2022-09-06T11:24:40.474Z,1007.10
2022-09-06T11:25:40.485Z,1007.10
2022-09-06T11:26:40.452Z,1007.08
2022-09-06T11:27:40.444Z,1007.00
2022-09-06T11:28:40.453Z,1007.03
2022-09-06T11:29:40.453Z,1007.00
2022-09-06T11:30:40.441Z,1007.00
2022-09-06T11:32:40.419Z,1007.00
2022-09-06T11:33:40.403Z,1006.99
2022-09-06T11:34:40.408Z,1006.99
2022-09-06T11:35:40.352Z,1006.97
2022-09-06T11:36:40.359Z,1006.92
2022-09-06T11:37:40.355Z,1006.93
2022-09-06T11:38:40.331Z,1006.93
2022-09-06T11:40:40.406Z,1006.94
2022-09-06T11:41:40.311Z,1006.94
2022-09-06T11:42:40.288Z,1006.95
2022-09-06T11:43:40.266Z,1006.90
2022-09-06T11:44:40.275Z,1006.90
2022-09-06T11:45:40.254Z,1006.90
2022-09-06T11:46:40.504Z,1006.97
2022-09-06T11:47:40.228Z,1006.90
2022-09-06T11:48:40.239Z,1006.95
2022-09-06T11:49:40.229Z,1006.91
2022-09-06T11:50:40.218Z,1006.85
2022-09-06T11:51:40.191Z,1006.87
2022-09-06T11:52:40.200Z,1006.86
2022-09-06T11:53:40.167Z,1006.85
2022-09-06T11:54:40.170Z,1006.85
2022-09-06T11:55:40.133Z,1006.84
2022-09-06T11:56:40.133Z,1006.82
2022-09-06T11:57:40.135Z,1006.82
2022-09-06T11:58:40.165Z,1006.80
2022-09-06T11:59:40.104Z,1006.75
2022-09-06T12:00:40.087Z,1006.75
2022-09-06T12:01:40.075Z,1006.77
2022-09-06T12:02:40.231Z,1006.79
2022-09-06T12:04:40.076Z,1006.82
2022-09-06T12:05:40.036Z,1006.80
2022-09-06T12:06:40.081Z,1006.74
2022-09-06T12:07:40.025Z,1006.74
2022-09-06T12:08:40.000Z,1006.70
2022-09-06T12:09:40.024Z,1006.70
2022-09-06T12:10:40.027Z,1006.65
2022-09-06T12:11:39.982Z,1006.62
2022-09-06T12:12:39.973Z,1006.61
2022-09-06T12:13:39.986Z,1006.64
2022-09-06T12:14:39.944Z,1006.62
2022-09-06T12:15:39.964Z,1006.62
2022-09-06T12:16:39.910Z,1006.61
2022-09-06T12:17:39.907Z,1006.60
2022-09-06T12:18:39.894Z,1006.60
2022-09-06T12:19:43.943Z,1006.60
2022-09-06T12:20:39.870Z,1006.63
2022-09-06T12:21:39.892Z,1006.57
2022-09-06T12:22:39.845Z,1006.53
2022-09-06T12:23:39.830Z,1006.55
2022-09-06T12:24:39.823Z,1006.52
2022-09-06T12:25:39.807Z,1006.61
2022-09-06T12:26:39.895Z,1006.55
2022-09-06T12:27:39.785Z,1006.53
2022-09-06T12:28:39.788Z,1006.52